Cody, WY

1:20 AM MDT on May 24, 2017 (GMT -0600)
MRATW4 | | Change Station
Active Advisory: Special Statement

Elev 8396 ft 44.57 °N, 109.26 °W | Updated 6 days ago

Clear
Clear
35.0 °F
Feels Like 35 °F
N
2.0
Wind Variable Wind from SE
Gusts 5.0 mph

Today
High -- | Low -- °F
--% Chance of Precip.
Yesterday
High -- | Low -- °F
Precip. -- in
Pressure 29.76 in
Visibility 10.0 miles
Clouds Clear
Windchill 35 °F
Dew Point 23 °F
Humidity 61%
Rainfall 0.00 in
Snow Depth Not available.
5:40 AM 8:48 PM
Waning Crescent, 4% visible
METAR KCOD 240656Z AUTO 32005KT 10SM CLR 14/03 A2985 RMK AO2 SLP076 T01440033
Pressure 29.76 in
Visibility 10.0 miles
Clouds Clear
Windchill 35 °F
Dew Point 23 °F
Humidity 61%
Rainfall 0.00 in
Snow Depth Not available.
5:40 AM 8:48 PM
Waning Crescent, 4% visible
METAR KCOD 240656Z AUTO 32005KT 10SM CLR 14/03 A2985 RMK AO2 SLP076 T01440033

Get Your Daily Forecast Email!

Thanks for signing up!

Be on the lookout for a verification email in your inbox.

You'll start receiving severe weather alerts in your inbox..

×

10-Day Weather Forecast

Almanac

Astronomy

May. 24, 2017 Rise Set
Actual Time
Civil Twilight
Nautical Twilight
Astronomical Twilight
Moon
Length of Visible Light
Length of Day
Tomorrow will be .
, % of the Moon is Illuminated

Today's Extremes

State Highs State Lows

Community

WunderPhotos

Category 6

Welcome to Category 6. This is the collective home for Weather Underground's featured writeups by Dr. Jeff Masters (right), Bob Henson (left), Chris Burt, and other regular contributors.

Nearby

Air Quality

  Air Quality AQ Index Pollutant
Not available.

Snow Depth

Station Depth Elevation

Earthquake Activity

City Distance Mag. Time & Date
Minimum magnitude displayed is 2.5.

Coastal Water Temperatures

Place Temperature

Stations

Nearby Weather Stations

Station Location Temp. Windchill Dew Point Humidity Wind Precip. Elev Updated Type
                   

Watches & Warnings

Special Statement
Issued: 1:10 AM MDT May. 24, 2017 – National Weather Service

West winds increase this afternoon to 20 to 30 mph with gusts to
40 to 50 mph at times before decreasing around sunset. Travelers
traveling area roads, especially those towing trailers and in
high profile vehicles, are urged to watch for strong Crosswinds
when traveling this afternoon.



110 am MDT Wed may 24 2017

West winds increase this afternoon to 20 to 30 mph with gusts to
40 to 50 mph at times before decreasing around sunset. Travelers
traveling area roads, especially those towing trailers and in
high profile vehicles, are urged to watch for strong Crosswinds
when traveling this afternoon.